Time;durP1;ratioP1;P1;durP2;ratioP2;P2;SDS_P1;SDS_P2;PMS_P1;PMS_P2;Temp;Humidity;BMP_temperature;BMP_pressure;BME280_temperature;BME280_humidity;BME280_pressure;Samples;Min_cycle;Max_cycle;Signal;HPM_P1;HPM_P2
2022/04/03 00:00:03;;;;;;;;;;;1.70;99.90;;;;;;5126444;27;20282;-62
2022/04/03 00:02:29;;;;;;;;;;;1.60;99.90;;;;;;5128000;27;20349;-63
2022/04/03 00:04:54;;;;;;;;;;;1.70;99.90;;;;;;5120704;27;19912;-62
2022/04/03 00:07:20;;;;;;;;;;;1.80;99.90;;;;;;5112465;28;20406;-63
2022/04/03 00:09:45;;;;;;;;;;;1.80;99.90;;;;;;5095646;28;20369;-61
2022/04/03 00:12:11;;;;;;;;;;;1.80;99.90;;;;;;5125926;27;19966;-63
2022/04/03 00:14:36;;;;;;;;;;;1.80;99.90;;;;;;5119557;27;19927;-63
2022/04/03 00:17:02;;;;;;;;;;;1.70;99.90;;;;;;5116819;28;19908;-62
2022/04/03 00:19:28;;;;;;;;;;;1.70;99.90;;;;;;5128732;28;19923;-62
2022/04/03 00:21:53;;;;;;;;;;;1.70;99.90;;;;;;5126595;28;19920;-65
2022/04/03 00:24:19;;;;;;;;;;;1.60;99.90;;;;;;5123829;28;20418;-63
2022/04/03 00:26:44;;;;;;;;;;;1.60;99.90;;;;;;5130643;27;19930;-63
2022/04/03 00:29:10;;;;;;;;;;;1.60;99.90;;;;;;5118193;28;19918;-63
2022/04/03 00:31:35;;;;;;;;;;;1.50;99.90;;;;;;5131303;27;19912;-63
2022/04/03 00:34:01;;;;;;;;;;;1.50;99.90;;;;;;5122346;27;20018;-63
2022/04/03 00:36:26;;;;;;;;;;;1.50;99.90;;;;;;5097655;28;20365;-63
2022/04/03 00:38:52;;;;;;;;;;;1.40;99.90;;;;;;5124934;28;19919;-63
2022/04/03 00:41:19;;;;;;;;;;;1.30;99.90;;;;;;5123951;27;19922;-62
2022/04/03 00:43:45;;;;;;;;;;;1.40;99.90;;;;;;5128061;27;19916;-61
2022/04/03 00:46:11;;;;;;;;;;;1.30;99.90;;;;;;5129413;27;20324;-62
2022/04/03 00:48:37;;;;;;;;;;;1.20;99.90;;;;;;5137769;27;20424;-63
2022/04/03 00:51:02;;;;;;;;;;;1.20;99.90;;;;;;5143761;27;19964;-62
2022/04/03 00:53:28;;;;;;;;;;;1.10;99.90;;;;;;5140793;28;19922;-63
2022/04/03 00:55:54;;;;;;;;;;;1.10;99.90;;;;;;5140432;28;19938;-63
2022/04/03 00:58:19;;;;;;;;;;;1.10;99.90;;;;;;5140909;28;19981;-61
2022/04/03 01:00:45;;;;;;;;;;;1.10;99.90;;;;;;5134930;27;19915;-62
2022/04/03 01:03:10;;;;;;;;;;;1.10;99.90;;;;;;5144648;27;19953;-63
2022/04/03 01:05:37;;;;;;;;;;;1.10;99.90;;;;;;5137296;28;19912;-63
2022/04/03 01:08:03;;;;;;;;;;;1.10;99.90;;;;;;5141924;28;19911;-62
2022/04/03 01:10:29;;;;;;;;;;;1.10;99.90;;;;;;5125942;28;19911;-62
2022/04/03 01:12:54;;;;;;;;;;;1.10;99.90;;;;;;5133755;28;19984;-61
2022/04/03 01:15:20;;;;;;;;;;;1.00;99.90;;;;;;5132961;28;19978;-62
2022/04/03 01:17:46;;;;;;;;;;;1.00;99.90;;;;;;5139296;27;19911;-62
2022/04/03 01:20:11;;;;;;;;;;;1.00;99.90;;;;;;5143713;27;19912;-61
2022/04/03 01:22:37;;;;;;;;;;;1.10;99.90;;;;;;5140377;27;19922;-62
2022/04/03 01:25:04;;;;;;;;;;;1.00;99.90;;;;;;5145326;27;19933;-64
2022/04/03 01:27:29;;;;;;;;;;;0.90;99.90;;;;;;5139997;27;19919;-63
2022/04/03 01:29:57;;;;;;;;;;;0.90;99.90;;;;;;5127107;27;19915;-63
2022/04/03 01:32:23;;;;;;;;;;;0.80;99.90;;;;;;5129172;27;19912;-63
2022/04/03 01:34:49;;;;;;;;;;;0.70;99.90;;;;;;5138493;27;20022;-63
2022/04/03 01:37:14;;;;;;;;;;;0.70;99.90;;;;;;5147380;27;19916;-63
2022/04/03 01:39:40;;;;;;;;;;;0.80;99.90;;;;;;5138628;27;19971;-63
2022/04/03 01:42:06;;;;;;;;;;;0.80;99.90;;;;;;5142160;27;19919;-69
2022/04/03 01:44:31;;;;;;;;;;;0.80;99.90;;;;;;5138333;27;20054;-62
2022/04/03 01:46:57;;;;;;;;;;;0.70;99.90;;;;;;5138901;27;19931;-62
2022/04/03 01:49:22;;;;;;;;;;;0.80;99.90;;;;;;5141807;27;20336;-62
2022/04/03 01:51:48;;;;;;;;;;;0.90;99.90;;;;;;5146930;27;19912;-62
2022/04/03 01:54:14;;;;;;;;;;;0.90;99.90;;;;;;5137959;27;19923;-62
2022/04/03 01:56:40;;;;;;;;;;;0.90;99.90;;;;;;5143662;27;19922;-62
2022/04/03 01:59:06;;;;;;;;;;;0.90;99.90;;;;;;5143704;27;19911;-62
2022/04/03 02:01:33;;;;;;;;;;;0.80;99.90;;;;;;5149020;27;19912;-62
2022/04/03 02:04:00;;;;;;;;;;;0.80;99.90;;;;;;5150458;27;19955;-62
2022/04/03 02:06:25;;;;;;;;;;;0.80;99.90;;;;;;5127245;27;19922;-62
2022/04/03 02:08:52;;;;;;;;;;;0.80;99.90;;;;;;5139165;27;19961;-63
2022/04/03 02:11:17;;;;;;;;;;;1.00;99.90;;;;;;5145587;27;19916;-61
2022/04/03 02:13:43;;;;;;;;;;;0.80;99.90;;;;;;5138425;27;19911;-62
2022/04/03 02:16:11;;;;;;;;;;;0.70;99.90;;;;;;5141855;27;19979;-62
2022/04/03 02:18:37;;;;;;;;;;;0.80;99.90;;;;;;5137732;27;19912;-64
2022/04/03 02:21:03;;;;;;;;;;;0.70;99.90;;;;;;5127390;27;19922;-63
2022/04/03 02:23:28;;;;;;;;;;;0.60;99.90;;;;;;5138161;27;19912;-62
2022/04/03 02:25:54;;;;;;;;;;;0.60;99.90;;;;;;5142303;27;19980;-61
2022/04/03 02:28:20;;;;;;;;;;;0.60;99.90;;;;;;5141695;27;19934;-62
2022/04/03 02:30:46;;;;;;;;;;;0.50;99.90;;;;;;5117423;27;19911;-62
2022/04/03 02:33:11;;;;;;;;;;;0.50;99.90;;;;;;5125078;27;19930;-62
2022/04/03 02:35:37;;;;;;;;;;;0.50;99.90;;;;;;5147670;27;19920;-62
2022/04/03 02:38:03;;;;;;;;;;;0.40;99.90;;;;;;5133561;27;19979;-63
2022/04/03 02:40:28;;;;;;;;;;;0.40;99.90;;;;;;5148113;27;19980;-64
2022/04/03 02:42:54;;;;;;;;;;;0.40;99.90;;;;;;5132836;27;19945;-62
2022/04/03 02:45:20;;;;;;;;;;;0.40;99.90;;;;;;5130179;27;19998;-62
2022/04/03 02:47:49;;;;;;;;;;;0.50;99.90;;;;;;5142748;27;19911;-62
2022/04/03 02:50:16;;;;;;;;;;;0.50;99.90;;;;;;5124302;27;19920;-62
2022/04/03 02:52:43;;;;;;;;;;;0.50;99.90;;;;;;5137092;27;19998;-62
2022/04/03 02:55:09;;;;;;;;;;;0.40;99.90;;;;;;5137471;27;19971;-63
2022/04/03 02:57:35;;;;;;;;;;;0.40;99.90;;;;;;5142835;27;19990;-62
2022/04/03 03:00:00;;;;;;;;;;;0.40;99.90;;;;;;5138718;27;19978;-62
2022/04/03 03:02:26;;;;;;;;;;;0.40;99.90;;;;;;5140476;27;19937;-62
2022/04/03 03:04:51;;;;;;;;;;;0.40;99.90;;;;;;5143978;27;19974;-62
2022/04/03 03:07:17;;;;;;;;;;;0.40;99.90;;;;;;5143434;27;20589;-62
2022/04/03 03:09:42;;;;;;;;;;;0.40;99.90;;;;;;5137251;27;19914;-63
2022/04/03 03:12:08;;;;;;;;;;;0.30;99.90;;;;;;5145076;27;19923;-62
2022/04/03 03:14:34;;;;;;;;;;;0.30;99.90;;;;;;5108074;27;19995;-62
2022/04/03 03:17:01;;;;;;;;;;;0.30;99.90;;;;;;5134821;27;19912;-62
2022/04/03 03:19:26;;;;;;;;;;;0.40;99.90;;;;;;5148643;27;19912;-63
2022/04/03 03:21:52;;;;;;;;;;;0.40;99.90;;;;;;5124425;28;19927;-61
2022/04/03 03:24:17;;;;;;;;;;;0.50;99.90;;;;;;5138509;27;19982;-63
2022/04/03 03:26:43;;;;;;;;;;;0.40;99.90;;;;;;5132746;27;19943;-62
2022/04/03 03:29:08;;;;;;;;;;;0.40;99.90;;;;;;5143040;27;19913;-62
2022/04/03 03:31:34;;;;;;;;;;;0.30;99.90;;;;;;5142863;27;20004;-62
2022/04/03 03:34:00;;;;;;;;;;;0.20;99.90;;;;;;5138126;27;20368;-62
2022/04/03 03:36:25;;;;;;;;;;;0.20;99.90;;;;;;5136851;27;20410;-63
2022/04/03 03:38:51;;;;;;;;;;;0.30;99.90;;;;;;5127485;27;20137;-62
2022/04/03 03:41:16;;;;;;;;;;;0.30;99.90;;;;;;5138647;27;19919;-62
2022/04/03 03:43:42;;;;;;;;;;;0.40;99.90;;;;;;5136546;27;19911;-63
2022/04/03 03:46:11;;;;;;;;;;;0.60;99.90;;;;;;5129759;27;19922;-63
2022/04/03 03:48:37;;;;;;;;;;;0.70;99.90;;;;;;5143589;27;19911;-63
2022/04/03 03:51:03;;;;;;;;;;;0.80;99.90;;;;;;5139445;27;19971;-62
2022/04/03 03:53:29;;;;;;;;;;;1.00;99.90;;;;;;5140112;27;19964;-62
2022/04/03 03:55:55;;;;;;;;;;;1.00;99.90;;;;;;5132315;27;19920;-62
2022/04/03 03:58:21;;;;;;;;;;;1.10;99.90;;;;;;5126404;27;19986;-63
2022/04/03 04:00:46;;;;;;;;;;;1.10;99.90;;;;;;5140390;27;19911;-63
2022/04/03 04:03:12;;;;;;;;;;;1.10;99.90;;;;;;5114405;28;19982;-63
2022/04/03 04:05:38;;;;;;;;;;;1.10;99.90;;;;;;5142863;27;19922;-62
2022/04/03 04:08:04;;;;;;;;;;;1.20;99.90;;;;;;5119276;28;20407;-62
2022/04/03 04:10:30;;;;;;;;;;;1.20;99.90;;;;;;5132866;27;19912;-63
2022/04/03 04:12:57;;;;;;;;;;;1.20;99.90;;;;;;5141443;27;19911;-63
2022/04/03 04:15:22;;;;;;;;;;;1.20;99.90;;;;;;5128044;28;19927;-62
2022/04/03 04:17:48;;;;;;;;;;;1.20;99.90;;;;;;5136946;27;19912;-62
2022/04/03 04:20:15;;;;;;;;;;;1.20;99.90;;;;;;5135387;28;19915;-62
2022/04/03 04:22:41;;;;;;;;;;;1.20;99.90;;;;;;5132317;28;19908;-62
2022/04/03 04:25:07;;;;;;;;;;;1.20;99.90;;;;;;5126305;27;19908;-63
2022/04/03 04:27:33;;;;;;;;;;;1.20;99.90;;;;;;5138912;28;19979;-62
2022/04/03 04:29:58;;;;;;;;;;;1.20;99.90;;;;;;5143608;28;19956;-62
2022/04/03 04:32:26;;;;;;;;;;;1.20;99.90;;;;;;5136362;28;19933;-62
2022/04/03 04:34:51;;;;;;;;;;;1.30;99.90;;;;;;5146224;27;19978;-62
2022/04/03 04:37:17;;;;;;;;;;;1.20;99.90;;;;;;5143752;28;19912;-62
2022/04/03 04:39:43;;;;;;;;;;;1.00;99.90;;;;;;5122099;28;19924;-63
2022/04/03 04:42:08;;;;;;;;;;;0.90;99.90;;;;;;5127417;28;20438;-63
2022/04/03 04:44:34;;;;;;;;;;;0.70;99.90;;;;;;5145039;27;20015;-63
2022/04/03 04:47:00;;;;;;;;;;;0.50;99.90;;;;;;5120649;28;19919;-62
2022/04/03 04:49:27;;;;;;;;;;;0.30;99.90;;;;;;5136402;28;19927;-61
2022/04/03 04:51:52;;;;;;;;;;;0.10;99.90;;;;;;5137534;27;19912;-63
2022/04/03 04:54:18;;;;;;;;;;;0.10;99.90;;;;;;5139812;27;19923;-65
2022/04/03 04:56:43;;;;;;;;;;;0.00;99.90;;;;;;5144698;27;19915;-63
2022/04/03 04:59:10;;;;;;;;;;;0.00;99.90;;;;;;5148040;27;19942;-62
2022/04/03 05:01:36;;;;;;;;;;;-0.10;99.90;;;;;;5144395;27;19919;-63
2022/04/03 05:04:02;;;;;;;;;;;-0.10;99.90;;;;;;5151205;27;19908;-63
2022/04/03 05:06:28;;;;;;;;;;;-0.10;99.90;;;;;;5143526;27;19975;-62
2022/04/03 05:08:54;;;;;;;;;;;-0.10;99.90;;;;;;5144718;27;19912;-64
2022/04/03 05:11:20;;;;;;;;;;;-0.10;99.90;;;;;;5136029;27;19911;-63
2022/04/03 05:13:46;;;;;;;;;;;0.00;99.90;;;;;;5143296;27;19963;-63
2022/04/03 05:16:12;;;;;;;;;;;-0.10;99.90;;;;;;5129828;27;19911;-65
2022/04/03 05:18:37;;;;;;;;;;;-0.20;99.90;;;;;;5146873;27;19923;-63
2022/04/03 05:21:04;;;;;;;;;;;-0.20;99.90;;;;;;5148199;27;19975;-62
2022/04/03 05:23:30;;;;;;;;;;;-0.20;99.90;;;;;;5145731;27;19919;-61
2022/04/03 05:25:56;;;;;;;;;;;-0.30;99.90;;;;;;5145510;27;19998;-61
2022/04/03 05:28:21;;;;;;;;;;;-0.30;99.90;;;;;;5144823;27;19923;-62
2022/04/03 05:30:47;;;;;;;;;;;-0.30;99.90;;;;;;5123794;27;19912;-64
2022/04/03 05:33:14;;;;;;;;;;;-0.30;99.90;;;;;;5144680;27;20053;-62
2022/04/03 05:35:39;;;;;;;;;;;-0.30;99.90;;;;;;5147754;27;19919;-62
2022/04/03 05:38:05;;;;;;;;;;;-0.20;99.90;;;;;;5141523;27;20002;-62
2022/04/03 05:40:31;;;;;;;;;;;-0.30;99.90;;;;;;5124618;28;20353;-61
2022/04/03 05:42:57;;;;;;;;;;;-0.40;99.90;;;;;;5142218;27;19920;-63
2022/04/03 05:45:22;;;;;;;;;;;-0.40;99.90;;;;;;5128671;27;19912;-62
2022/04/03 05:47:48;;;;;;;;;;;-0.50;99.90;;;;;;5140116;27;19912;-62
2022/04/03 05:50:16;;;;;;;;;;;-0.40;99.90;;;;;;5138707;27;19995;-62
2022/04/03 05:52:43;;;;;;;;;;;-0.50;99.90;;;;;;5140948;27;19911;-61
2022/04/03 05:55:09;;;;;;;;;;;-0.50;99.90;;;;;;5146918;27;20331;-62
2022/04/03 05:57:35;;;;;;;;;;;-0.50;99.90;;;;;;5135317;27;20006;-62
2022/04/03 06:00:00;;;;;;;;;;;-0.50;99.90;;;;;;5139112;27;19911;-62
2022/04/03 06:02:26;;;;;;;;;;;-0.50;99.90;;;;;;5142190;27;19912;-62
2022/04/03 06:04:52;;;;;;;;;;;-0.40;99.90;;;;;;5146233;27;19956;-62
2022/04/03 06:07:18;;;;;;;;;;;-0.50;99.90;;;;;;5132983;27;20318;-63
2022/04/03 06:09:44;;;;;;;;;;;-0.50;99.90;;;;;;5142018;27;19921;-63
2022/04/03 06:12:10;;;;;;;;;;;-0.50;99.90;;;;;;5131393;27;19916;-62
2022/04/03 06:14:36;;;;;;;;;;;-0.50;99.90;;;;;;5148760;27;19927;-64
2022/04/03 06:17:01;;;;;;;;;;;-0.50;99.90;;;;;;5145591;27;19911;-62
2022/04/03 06:19:27;;;;;;;;;;;-0.50;99.90;;;;;;5146010;27;19919;-61
2022/04/03 06:21:53;;;;;;;;;;;-0.40;99.90;;;;;;5142161;27;19911;-65
2022/04/03 06:24:21;;;;;;;;;;;-0.60;99.90;;;;;;5139376;27;19912;-63
2022/04/03 06:26:47;;;;;;;;;;;-0.60;99.90;;;;;;5138675;27;19934;-62
2022/04/03 06:29:12;;;;;;;;;;;-0.50;99.90;;;;;;5143226;27;19911;-63
2022/04/03 06:31:38;;;;;;;;;;;-0.30;99.90;;;;;;5143625;27;19918;-63
2022/04/03 06:34:04;;;;;;;;;;;-0.30;99.90;;;;;;5146269;27;19920;-63
2022/04/03 06:36:29;;;;;;;;;;;-0.30;99.90;;;;;;5142377;27;19922;-61
2022/04/03 06:38:55;;;;;;;;;;;-0.30;99.90;;;;;;5139177;27;19962;-62
2022/04/03 06:41:22;;;;;;;;;;;-0.30;99.90;;;;;;5140987;27;19919;-63
2022/04/03 06:43:48;;;;;;;;;;;-0.20;99.90;;;;;;5142410;27;19911;-62
2022/04/03 06:46:14;;;;;;;;;;;-0.10;99.90;;;;;;5139491;27;19902;-62
2022/04/03 06:48:40;;;;;;;;;;;-0.20;99.90;;;;;;5141323;27;19912;-62
2022/04/03 06:51:06;;;;;;;;;;;-0.10;99.90;;;;;;5145174;27;19933;-62
2022/04/03 06:53:32;;;;;;;;;;;-0.10;99.90;;;;;;5122673;27;19912;-63
2022/04/03 06:55:58;;;;;;;;;;;-0.10;99.90;;;;;;5126672;27;19976;-62
2022/04/03 06:58:24;;;;;;;;;;;-0.10;99.90;;;;;;5139866;27;19926;-62
2022/04/03 07:00:49;;;;;;;;;;;0.20;99.90;;;;;;5116873;27;20994;-62
2022/04/03 07:03:15;;;;;;;;;;;0.50;99.90;;;;;;5130932;27;19912;-62
2022/04/03 07:05:40;;;;;;;;;;;0.60;99.90;;;;;;5113924;27;19912;-63
2022/04/03 07:08:06;;;;;;;;;;;0.70;99.90;;;;;;5127124;27;20219;-62
2022/04/03 07:10:33;;;;;;;;;;;0.80;99.90;;;;;;5131385;27;19957;-61
2022/04/03 07:12:59;;;;;;;;;;;1.00;99.90;;;;;;5146947;27;19911;-64
2022/04/03 07:15:25;;;;;;;;;;;1.20;99.90;;;;;;5118516;27;19931;-63
2022/04/03 07:17:50;;;;;;;;;;;1.40;99.90;;;;;;5143465;27;19915;-63
2022/04/03 07:20:16;;;;;;;;;;;1.50;99.90;;;;;;5140243;27;19912;-63
2022/04/03 07:22:42;;;;;;;;;;;1.70;99.90;;;;;;5145214;27;19907;-63
2022/04/03 07:25:12;;;;;;;;;;;1.90;99.90;;;;;;5141215;27;19915;-62
2022/04/03 07:27:38;;;;;;;;;;;2.00;99.90;;;;;;5142825;27;19912;-65
2022/04/03 07:30:04;;;;;;;;;;;2.20;99.90;;;;;;5140069;27;19982;-64
2022/04/03 07:32:30;;;;;;;;;;;2.30;99.90;;;;;;5130994;27;19912;-63
2022/04/03 07:34:55;;;;;;;;;;;2.50;99.90;;;;;;5131312;27;20268;-63
2022/04/03 07:37:22;;;;;;;;;;;2.60;99.90;;;;;;5118513;27;20358;-63
2022/04/03 07:39:47;;;;;;;;;;;2.80;99.90;;;;;;5135147;27;19993;-63
2022/04/03 07:42:13;;;;;;;;;;;2.90;99.90;;;;;;5116333;27;19945;-63
2022/04/03 07:44:39;;;;;;;;;;;2.90;99.90;;;;;;5135039;27;19930;-63
2022/04/03 07:47:04;;;;;;;;;;;3.10;99.90;;;;;;5138871;27;19911;-62
2022/04/03 07:49:30;;;;;;;;;;;3.20;99.90;;;;;;5139401;27;19943;-62
2022/04/03 07:51:56;;;;;;;;;;;3.30;99.90;;;;;;5138430;27;19947;-62
2022/04/03 07:54:21;;;;;;;;;;;3.40;99.90;;;;;;5142723;27;19919;-64
2022/04/03 07:56:47;;;;;;;;;;;3.50;99.90;;;;;;5143314;27;19911;-68
2022/04/03 07:59:12;;;;;;;;;;;3.70;99.90;;;;;;5137834;27;19912;-63
2022/04/03 08:01:38;;;;;;;;;;;3.70;99.90;;;;;;5112740;27;19912;-64
2022/04/03 08:04:03;;;;;;;;;;;3.70;99.90;;;;;;5130610;27;19918;-63
2022/04/03 08:06:29;;;;;;;;;;;3.70;99.90;;;;;;5131857;27;19911;-62
2022/04/03 08:08:54;;;;;;;;;;;3.70;99.90;;;;;;5125141;27;19987;-63
2022/04/03 08:11:20;;;;;;;;;;;3.80;99.90;;;;;;5126932;27;19996;-63
2022/04/03 08:13:47;;;;;;;;;;;3.90;99.90;;;;;;5125455;27;19912;-64
2022/04/03 08:16:13;;;;;;;;;;;3.90;99.90;;;;;;5124798;27;20372;-62
2022/04/03 08:18:39;;;;;;;;;;;4.00;99.90;;;;;;5125934;27;19972;-63
2022/04/03 08:21:04;;;;;;;;;;;4.00;99.90;;;;;;5127724;27;19991;-64
2022/04/03 08:23:30;;;;;;;;;;;4.00;99.90;;;;;;5138737;27;19911;-63
2022/04/03 08:25:56;;;;;;;;;;;4.10;99.90;;;;;;5123153;27;20380;-63
2022/04/03 08:28:22;;;;;;;;;;;4.20;99.90;;;;;;5120306;27;19927;-62
2022/04/03 08:30:47;;;;;;;;;;;4.40;99.90;;;;;;5133343;27;19937;-63
2022/04/03 08:33:13;;;;;;;;;;;4.40;99.90;;;;;;5118995;27;19920;-64
2022/04/03 08:35:40;;;;;;;;;;;4.50;99.90;;;;;;5113883;27;19919;-63
2022/04/03 08:38:09;;;;;;;;;;;4.70;99.90;;;;;;5137632;27;21060;-62
2022/04/03 08:40:35;;;;;;;;;;;4.90;99.90;;;;;;5137222;27;19964;-62
2022/04/03 08:43:01;;;;;;;;;;;5.00;99.90;;;;;;5134542;27;19942;-63
2022/04/03 08:45:27;;;;;;;;;;;5.00;99.90;;;;;;5135372;27;19919;-64
2022/04/03 08:47:54;;;;;;;;;;;5.30;99.90;;;;;;5129274;27;19919;-63
2022/04/03 08:50:20;;;;;;;;;;;5.40;99.90;;;;;;5141340;27;19980;-62
2022/04/03 08:52:47;;;;;;;;;;;5.50;99.90;;;;;;5144851;27;19964;-64
2022/04/03 08:55:13;;;;;;;;;;;5.70;99.90;;;;;;5139395;27;19920;-63
2022/04/03 08:57:38;;;;;;;;;;;5.80;99.90;;;;;;5132948;27;19919;-62
2022/04/03 09:00:05;;;;;;;;;;;6.00;99.90;;;;;;5128900;27;19916;-63
2022/04/03 09:02:31;;;;;;;;;;;6.10;99.90;;;;;;5141158;27;19911;-62
2022/04/03 09:04:56;;;;;;;;;;;6.30;99.90;;;;;;5132406;27;19920;-63
2022/04/03 09:07:22;;;;;;;;;;;6.60;99.90;;;;;;5131658;27;19919;-63
2022/04/03 09:09:58;;;;;;;;;;;6.60;99.90;;;;;;5127779;27;19912;-63
2022/04/03 09:12:24;;;;;;;;;;;6.70;99.90;;;;;;5123843;27;19915;-62
2022/04/03 09:14:51;;;;;;;;;;;6.70;99.90;;;;;;5131689;27;19919;-63
2022/04/03 09:17:38;;;;;;;;;;;7.00;99.90;;;;;;5133869;27;19970;-63
2022/04/03 09:20:09;;;;;;;;;;;7.10;99.90;;;;;;5110650;27;19922;-62
2022/04/03 09:22:35;;;;;;;;;;;7.30;99.90;;;;;;5133053;27;19919;-64
2022/04/03 09:25:03;;;;;;;;;;;7.20;99.90;;;;;;5133070;27;19911;-62
2022/04/03 09:27:32;;;;;;;;;;;7.20;99.90;;;;;;5138326;27;19912;-62
2022/04/03 09:30:02;;;;;;;;;;;7.10;99.90;;;;;;5130824;27;19920;-63
2022/04/03 09:32:28;;;;;;;;;;;7.10;99.90;;;;;;5138314;27;19916;-62
2022/04/03 09:35:00;;;;;;;;;;;7.00;99.90;;;;;;5132001;27;19941;-63
2022/04/03 09:37:26;;;;;;;;;;;7.00;99.90;;;;;;5126661;27;20270;-62
2022/04/03 09:39:52;;;;;;;;;;;7.00;99.90;;;;;;5136180;27;19912;-63
2022/04/03 09:42:18;;;;;;;;;;;7.10;99.90;;;;;;5129255;27;19912;-62
2022/04/03 09:44:44;;;;;;;;;;;7.30;99.90;;;;;;5133867;27;20016;-64
2022/04/03 09:47:09;;;;;;;;;;;7.40;99.90;;;;;;5128790;27;19912;-61
2022/04/03 09:49:35;;;;;;;;;;;7.50;99.90;;;;;;5127386;27;19919;-61
2022/04/03 09:52:01;;;;;;;;;;;7.40;99.90;;;;;;5132574;27;20041;-63
2022/04/03 09:54:26;;;;;;;;;;;7.40;99.90;;;;;;5130168;27;19980;-63
2022/04/03 09:56:52;;;;;;;;;;;7.40;99.90;;;;;;5124537;27;19919;-61
2022/04/03 09:59:17;;;;;;;;;;;7.50;99.90;;;;;;5141338;27;19918;-63
2022/04/03 10:01:43;;;;;;;;;;;7.70;99.90;;;;;;5118005;27;19912;-64
2022/04/03 10:04:10;;;;;;;;;;;7.60;99.90;;;;;;5136883;27;19935;-63
2022/04/03 10:06:36;;;;;;;;;;;7.70;99.90;;;;;;5107684;28;19958;-63
2022/04/03 10:09:02;;;;;;;;;;;7.80;99.90;;;;;;5134613;27;19933;-62
2022/04/03 10:11:29;;;;;;;;;;;7.80;99.90;;;;;;5126215;27;19911;-66
2022/04/03 10:13:55;;;;;;;;;;;8.00;99.90;;;;;;5132737;27;19920;-63
2022/04/03 10:16:24;;;;;;;;;;;8.10;99.90;;;;;;5121149;27;19912;-66
2022/04/03 10:18:50;;;;;;;;;;;8.30;99.90;;;;;;5132783;27;19927;-62
2022/04/03 10:21:23;;;;;;;;;;;8.30;99.90;;;;;;5112600;27;19962;-64
2022/04/03 10:23:52;;;;;;;;;;;8.40;99.90;;;;;;5135836;27;19956;-64
2022/04/03 10:26:18;;;;;;;;;;;8.50;99.90;;;;;;5122643;27;19912;-63
2022/04/03 10:28:47;;;;;;;;;;;8.50;99.90;;;;;;5131588;27;20026;-63
2022/04/03 10:31:15;;;;;;;;;;;8.70;99.90;;;;;;5105619;27;20061;-62
2022/04/03 10:33:43;;;;;;;;;;;8.70;99.90;;;;;;5125662;27;19962;-64
2022/04/03 10:36:13;;;;;;;;;;;8.70;99.90;;;;;;5125438;27;19934;-63
2022/04/03 10:38:38;;;;;;;;;;;8.60;99.90;;;;;;5122907;27;19911;-63
2022/04/03 10:41:06;;;;;;;;;;;8.80;99.60;;;;;;5131052;27;19915;-63
2022/04/03 10:43:36;;;;;;;;;;;8.90;99.90;;;;;;5118441;27;19912;-63
2022/04/03 10:46:02;;;;;;;;;;;8.90;99.20;;;;;;5119957;27;20005;-62
2022/04/03 10:48:30;;;;;;;;;;;8.90;99.90;;;;;;5113180;27;20276;-63
2022/04/03 10:51:00;;;;;;;;;;;8.80;98.80;;;;;;5103293;27;19955;-63
2022/04/03 10:53:27;;;;;;;;;;;8.90;99.40;;;;;;5127955;27;20323;-63
2022/04/03 10:55:54;;;;;;;;;;;9.10;99.20;;;;;;5127744;27;19927;-65
2022/04/03 10:58:20;;;;;;;;;;;9.10;97.60;;;;;;5129712;27;20002;-63
2022/04/03 11:00:46;;;;;;;;;;;9.10;96.10;;;;;;5110351;27;19999;-63
2022/04/03 11:03:14;;;;;;;;;;;9.10;95.40;;;;;;5106912;27;19919;-64
2022/04/03 11:05:42;;;;;;;;;;;9.30;94.90;;;;;;5126287;27;20006;-63
2022/04/03 11:08:07;;;;;;;;;;;9.40;94.20;;;;;;5123033;27;19919;-64
2022/04/03 11:10:49;;;;;;;;;;;9.50;93.00;;;;;;5129870;27;19919;-64
2022/04/03 11:13:35;;;;;;;;;;;9.40;93.10;;;;;;5126376;27;19955;-64
2022/04/03 11:16:01;;;;;;;;;;;9.50;93.20;;;;;;5130444;27;19920;-63
2022/04/03 11:18:27;;;;;;;;;;;9.70;94.10;;;;;;5124591;27;20332;-64
2022/04/03 11:21:08;;;;;;;;;;;9.70;92.20;;;;;;5122219;27;19978;-64
2022/04/03 11:23:41;;;;;;;;;;;9.70;92.50;;;;;;5117626;27;19954;-63
2022/04/03 11:26:07;;;;;;;;;;;10.00;93.30;;;;;;5119770;27;19912;-63
2022/04/03 11:28:36;;;;;;;;;;;10.10;92.70;;;;;;5123603;27;20356;-63
2022/04/03 11:31:03;;;;;;;;;;;10.10;92.50;;;;;;5121755;27;19915;-63
2022/04/03 11:33:29;;;;;;;;;;;10.10;91.60;;;;;;5129402;27;19920;-63
2022/04/03 11:36:12;;;;;;;;;;;10.20;91.00;;;;;;5093312;27;20493;-63
2022/04/03 11:38:47;;;;;;;;;;;10.20;90.10;;;;;;5118527;27;19923;-64
2022/04/03 11:41:25;;;;;;;;;;;10.20;89.80;;;;;;5123995;27;20345;-63
2022/04/03 11:44:00;;;;;;;;;;;10.50;90.40;;;;;;5120369;27;20360;-63
2022/04/03 11:46:42;;;;;;;;;;;10.90;89.10;;;;;;5124421;27;19951;-65
2022/04/03 11:49:15;;;;;;;;;;;10.80;90.20;;;;;;5119381;27;20381;-64
2022/04/03 11:51:41;;;;;;;;;;;11.00;87.80;;;;;;5126889;27;20277;-62
2022/04/03 11:54:07;;;;;;;;;;;11.10;87.10;;;;;;5118552;27;20337;-63
2022/04/03 11:56:35;;;;;;;;;;;11.30;88.10;;;;;;5121175;27;19918;-63
2022/04/03 11:59:01;;;;;;;;;;;11.30;86.30;;;;;;5117628;27;19935;-64
2022/04/03 12:01:30;;;;;;;;;;;11.20;84.80;;;;;;5120512;27;19912;-63
2022/04/03 12:04:00;;;;;;;;;;;11.00;85.00;;;;;;5106140;27;20127;-63
2022/04/03 12:06:26;;;;;;;;;;;11.10;85.40;;;;;;5099013;27;19911;-63
2022/04/03 12:08:52;;;;;;;;;;;11.30;82.30;;;;;;5118096;27;19939;-63
2022/04/03 12:11:19;;;;;;;;;;;11.10;81.40;;;;;;5123672;27;19918;-63
2022/04/03 12:13:45;;;;;;;;;;;10.80;82.80;;;;;;5128969;27;19911;-62
2022/04/03 12:16:21;;;;;;;;;;;10.60;82.40;;;;;;5129185;27;19930;-63
2022/04/03 12:18:56;;;;;;;;;;;10.20;79.40;;;;;;5106755;27;19952;-64
2022/04/03 12:21:35;;;;;;;;;;;10.30;79.30;;;;;;5131031;27;19998;-63
2022/04/03 12:24:02;;;;;;;;;;;10.50;80.00;;;;;;5121899;27;19912;-64
2022/04/03 12:26:27;;;;;;;;;;;10.50;78.70;;;;;;5118379;27;19915;-63
2022/04/03 12:28:55;;;;;;;;;;;10.50;79.60;;;;;;5119444;27;20015;-64
2022/04/03 12:31:24;;;;;;;;;;;10.60;79.70;;;;;;5128634;28;19912;-64
2022/04/03 12:33:50;;;;;;;;;;;10.70;79.90;;;;;;5125833;27;19957;-63
2022/04/03 12:36:16;;;;;;;;;;;10.70;79.70;;;;;;5102314;28;19959;-63
2022/04/03 12:38:49;;;;;;;;;;;10.80;82.40;;;;;;5119441;27;20025;-63
2022/04/03 12:41:14;;;;;;;;;;;11.10;81.70;;;;;;5120594;27;20019;-64
2022/04/03 12:43:44;;;;;;;;;;;11.30;81.30;;;;;;5122857;27;22693;-62
2022/04/03 12:46:09;;;;;;;;;;;10.10;81.10;;;;;;5116625;27;19978;-64
2022/04/03 12:48:35;;;;;;;;;;;11.00;80.60;;;;;;5121966;27;19942;-64
2022/04/03 12:51:08;;;;;;;;;;;10.80;81.00;;;;;;5120771;27;19912;-64
2022/04/03 12:53:34;;;;;;;;;;;10.80;81.00;;;;;;5119364;27;19947;-63
2022/04/03 12:56:03;;;;;;;;;;;10.80;81.40;;;;;;5123757;27;19977;-63
2022/04/03 12:58:38;;;;;;;;;;;10.90;81.40;;;;;;5125856;27;19964;-63
2022/04/03 13:01:13;;;;;;;;;;;10.80;81.50;;;;;;5102689;28;19979;-64
2022/04/03 13:03:39;;;;;;;;;;;10.50;81.70;;;;;;5131509;28;19911;-63
2022/04/03 13:06:04;;;;;;;;;;;10.40;81.40;;;;;;5124920;28;19911;-64
2022/04/03 13:08:47;;;;;;;;;;;10.30;82.80;;;;;;5108783;28;19912;-63
2022/04/03 13:11:45;;;;;;;;;;;10.40;82.70;;;;;;5128664;27;19911;-63
2022/04/03 13:14:13;;;;;;;;;;;10.50;83.20;;;;;;5133133;27;20310;-64
2022/04/03 13:16:39;;;;;;;;;;;10.60;83.40;;;;;;5132192;27;19934;-62
2022/04/03 13:19:05;;;;;;;;;;;10.70;83.20;;;;;;5128412;27;20365;-63
2022/04/03 13:21:34;;;;;;;;;;;10.60;82.40;;;;;;5124577;27;20368;-63
2022/04/03 13:23:59;;;;;;;;;;;10.60;82.70;;;;;;5114167;27;20369;-63
2022/04/03 13:26:25;;;;;;;;;;;10.60;80.00;;;;;;5123714;27;19934;-62
2022/04/03 13:28:50;;;;;;;;;;;10.60;80.00;;;;;;5126702;27;19918;-62
2022/04/03 13:31:16;;;;;;;;;;;10.40;80.60;;;;;;5122380;27;20319;-62
2022/04/03 13:33:41;;;;;;;;;;;10.40;80.80;;;;;;5129202;27;19924;-64
2022/04/03 13:36:07;;;;;;;;;;;10.40;79.40;;;;;;5125359;27;20281;-62
2022/04/03 13:38:32;;;;;;;;;;;10.50;79.50;;;;;;5119203;27;19947;-63
2022/04/03 13:40:58;;;;;;;;;;;10.60;79.70;;;;;;5121930;27;19942;-62
2022/04/03 13:43:23;;;;;;;;;;;10.80;78.60;;;;;;5119625;27;20011;-64
2022/04/03 13:45:59;;;;;;;;;;;11.00;78.80;;;;;;5125375;27;20006;-63
2022/04/03 13:48:25;;;;;;;;;;;11.20;77.50;;;;;;5125675;27;19919;-64
2022/04/03 13:50:53;;;;;;;;;;;11.40;75.80;;;;;;5123027;27;19911;-62
2022/04/03 13:53:19;;;;;;;;;;;11.40;76.50;;;;;;5122386;27;19983;-64
2022/04/03 13:55:45;;;;;;;;;;;11.60;75.20;;;;;;5123834;27;19919;-64
2022/04/03 13:58:10;;;;;;;;;;;11.80;75.40;;;;;;5124791;27;20056;-62
2022/04/03 14:00:36;;;;;;;;;;;12.10;75.80;;;;;;5123080;27;19943;-64
2022/04/03 14:03:02;;;;;;;;;;;12.10;75.20;;;;;;5125338;27;20551;-62
2022/04/03 14:05:27;;;;;;;;;;;12.40;74.70;;;;;;5122131;27;19919;-63
2022/04/03 14:07:53;;;;;;;;;;;12.30;74.70;;;;;;5125268;27;19973;-63
2022/04/03 14:10:18;;;;;;;;;;;12.10;73.00;;;;;;5127642;27;20442;-64
2022/04/03 14:12:44;;;;;;;;;;;11.90;74.60;;;;;;5125352;27;19994;-63
2022/04/03 14:15:10;;;;;;;;;;;11.60;75.70;;;;;;5103422;27;20277;-62
2022/04/03 14:17:36;;;;;;;;;;;11.50;77.00;;;;;;5106886;27;19959;-63
2022/04/03 14:20:03;;;;;;;;;;;11.50;75.20;;;;;;5111897;27;19919;-62
2022/04/03 14:22:28;;;;;;;;;;;11.40;75.20;;;;;;5111742;27;19920;-63